sensor_id;sensor_type;location;lat;lon;timestamp;pressure;altitude;pressure_sealevel;temperature;humidity
64835;BME280;51293;59.296;18.006;2023-02-10T00:00:42;100053.25;;;1.67;60.73
64835;BME280;51293;59.296;18.006;2023-02-10T00:03:08;100037.66;;;1.71;59.45
64835;BME280;51293;59.296;18.006;2023-02-10T00:05:33;100054.06;;;1.67;59.43
64835;BME280;51293;59.296;18.006;2023-02-10T00:07:58;100044.41;;;1.66;59.44
64835;BME280;51293;59.296;18.006;2023-02-10T00:10:24;100008.69;;;1.67;58.56
64835;BME280;51293;59.296;18.006;2023-02-10T00:12:49;100056.53;;;1.69;58.57
64835;BME280;51293;59.296;18.006;2023-02-10T00:15:15;100063.53;;;1.70;58.52
64835;BME280;51293;59.296;18.006;2023-02-10T00:17:40;100092.81;;;1.63;58.15
64835;BME280;51293;59.296;18.006;2023-02-10T00:20:06;100085.75;;;1.56;58.67
64835;BME280;51293;59.296;18.006;2023-02-10T00:22:33;100078.41;;;1.58;58.20
64835;BME280;51293;59.296;18.006;2023-02-10T00:24:58;100081.91;;;1.58;57.84
64835;BME280;51293;59.296;18.006;2023-02-10T00:27:24;100095.50;;;1.49;58.11
64835;BME280;51293;59.296;18.006;2023-02-10T00:29:50;100106.97;;;1.43;58.16
64835;BME280;51293;59.296;18.006;2023-02-10T00:32:15;100106.97;;;1.43;57.55
64835;BME280;51293;59.296;18.006;2023-02-10T00:34:43;100130.31;;;1.40;58.35
64835;BME280;51293;59.296;18.006;2023-02-10T00:37:08;100123.69;;;1.36;57.78
64835;BME280;51293;59.296;18.006;2023-02-10T00:39:34;100133.44;;;1.44;56.62
64835;BME280;51293;59.296;18.006;2023-02-10T00:41:59;100122.88;;;1.36;57.54
64835;BME280;51293;59.296;18.006;2023-02-10T00:44:24;100115.41;;;1.31;57.94
64835;BME280;51293;59.296;18.006;2023-02-10T00:46:50;100129.03;;;1.36;57.42
64835;BME280;51293;59.296;18.006;2023-02-10T00:49:15;100154.91;;;1.36;56.95
64835;BME280;51293;59.296;18.006;2023-02-10T00:51:40;100139.91;;;1.35;57.02
64835;BME280;51293;59.296;18.006;2023-02-10T00:54:06;100157.09;;;1.32;57.10
64835;BME280;51293;59.296;18.006;2023-02-10T00:56:32;100120.41;;;1.34;56.78
64835;BME280;51293;59.296;18.006;2023-02-10T00:58:57;100157.94;;;1.33;56.92
64835;BME280;51293;59.296;18.006;2023-02-10T01:01:23;100148.44;;;1.30;56.49
64835;BME280;51293;59.296;18.006;2023-02-10T01:03:48;100158.88;;;1.25;56.69
64835;BME280;51293;59.296;18.006;2023-02-10T01:06:14;100173.38;;;1.23;56.80
64835;BME280;51293;59.296;18.006;2023-02-10T01:08:40;100179.47;;;1.17;57.37
64835;BME280;51293;59.296;18.006;2023-02-10T01:11:07;100179.09;;;1.20;56.43
64835;BME280;51293;59.296;18.006;2023-02-10T01:13:34;100178.81;;;1.15;57.47
64835;BME280;51293;59.296;18.006;2023-02-10T01:16:04;100180.28;;;1.17;57.16
64835;BME280;51293;59.296;18.006;2023-02-10T01:18:29;100184.06;;;1.08;57.39
64835;BME280;51293;59.296;18.006;2023-02-10T01:20:55;100170.63;;;1.01;57.34
64835;BME280;51293;59.296;18.006;2023-02-10T01:23:20;100182.13;;;1.02;56.47
64835;BME280;51293;59.296;18.006;2023-02-10T01:25:45;100181.28;;;1.01;57.04
64835;BME280;51293;59.296;18.006;2023-02-10T01:28:11;100170.63;;;1.01;56.04
64835;BME280;51293;59.296;18.006;2023-02-10T01:30:36;100173.63;;;0.98;55.96
64835;BME280;51293;59.296;18.006;2023-02-10T01:33:02;100194.31;;;0.96;55.82
64835;BME280;51293;59.296;18.006;2023-02-10T01:35:27;100179.22;;;0.89;56.13
64835;BME280;51293;59.296;18.006;2023-02-10T01:37:53;100209.47;;;0.81;56.39
64835;BME280;51293;59.296;18.006;2023-02-10T01:40:20;100208.63;;;0.80;55.93
64835;BME280;51293;59.296;18.006;2023-02-10T01:42:45;100235.28;;;0.80;55.76
64835;BME280;51293;59.296;18.006;2023-02-10T01:45:32;100223.88;;;0.72;56.15
64835;BME280;51293;59.296;18.006;2023-02-10T01:47:59;100233.34;;;0.74;55.55
64835;BME280;51293;59.296;18.006;2023-02-10T01:50:31;100221.38;;;0.70;55.67
64835;BME280;51293;59.296;18.006;2023-02-10T01:52:59;100224.13;;;0.62;55.57
64835;BME280;51293;59.296;18.006;2023-02-10T01:55:28;100235.16;;;0.59;55.46
64835;BME280;51293;59.296;18.006;2023-02-10T01:57:58;100247.16;;;0.55;56.11
64835;BME280;51293;59.296;18.006;2023-02-10T02:00:25;100215.53;;;0.52;55.59
64835;BME280;51293;59.296;18.006;2023-02-10T02:02:51;100247.38;;;0.45;55.89
64835;BME280;51293;59.296;18.006;2023-02-10T02:05:29;100268.88;;;0.44;55.22
64835;BME280;51293;59.296;18.006;2023-02-10T02:07:58;100281.03;;;0.46;55.26
64835;BME280;51293;59.296;18.006;2023-02-10T02:10:36;100266.03;;;0.45;54.70
64835;BME280;51293;59.296;18.006;2023-02-10T02:16:07;100299.03;;;0.44;54.69
64835;BME280;51293;59.296;18.006;2023-02-10T02:27:40;100304.41;;;0.36;54.02
64835;BME280;51293;59.296;18.006;2023-02-10T02:33:24;100310.91;;;0.34;53.94
64835;BME280;51293;59.296;18.006;2023-02-10T02:36:26;100331.91;;;0.28;54.11
64835;BME280;51293;59.296;18.006;2023-02-10T02:38:58;100338.06;;;0.29;53.96
64835;BME280;51293;59.296;18.006;2023-02-10T02:41:24;100341.75;;;0.28;53.45
64835;BME280;51293;59.296;18.006;2023-02-10T02:43:50;100335.06;;;0.24;53.44
64835;BME280;51293;59.296;18.006;2023-02-10T02:54:43;100354.44;;;0.18;53.17
64835;BME280;51293;59.296;18.006;2023-02-10T02:59:43;100362.59;;;0.08;53.24
64835;BME280;51293;59.296;18.006;2023-02-10T03:02:15;100352.28;;;0.13;52.05
64835;BME280;51293;59.296;18.006;2023-02-10T03:04:45;100371.28;;;0.10;52.65
64835;BME280;51293;59.296;18.006;2023-02-10T03:07:10;100384.09;;;0.07;52.27
64835;BME280;51293;59.296;18.006;2023-02-10T03:09:36;100386.75;;;0.07;52.43
64835;BME280;51293;59.296;18.006;2023-02-10T03:12:03;100372.13;;;0.03;52.79
64835;BME280;51293;59.296;18.006;2023-02-10T03:14:28;100378.78;;;-0.02;52.37
64835;BME280;51293;59.296;18.006;2023-02-10T03:16:53;100385.09;;;-0.03;52.43
64835;BME280;51293;59.296;18.006;2023-02-10T03:19:19;100392.28;;;-0.03;52.30
64835;BME280;51293;59.296;18.006;2023-02-10T03:21:44;100391.44;;;-0.04;52.13
64835;BME280;51293;59.296;18.006;2023-02-10T03:24:10;100372.47;;;-0.09;52.78
64835;BME280;51293;59.296;18.006;2023-02-10T03:26:43;100373.81;;;-0.05;52.40
64835;BME280;51293;59.296;18.006;2023-02-10T03:29:11;100367.66;;;-0.05;52.40
64835;BME280;51293;59.296;18.006;2023-02-10T03:31:36;100374.31;;;-0.09;52.58
64835;BME280;51293;59.296;18.006;2023-02-10T03:34:02;100394.28;;;-0.13;51.90
64835;BME280;51293;59.296;18.006;2023-02-10T03:36:27;100395.94;;;-0.12;52.41
64835;BME280;51293;59.296;18.006;2023-02-10T03:38:52;100377.50;;;-0.22;52.74
64835;BME280;51293;59.296;18.006;2023-02-10T03:41:24;100398.47;;;-0.27;52.68
64835;BME280;51293;59.296;18.006;2023-02-10T03:43:49;100398.63;;;-0.20;52.05
64835;BME280;51293;59.296;18.006;2023-02-10T03:46:15;100400.13;;;-0.26;52.63
64835;BME280;51293;59.296;18.006;2023-02-10T03:48:40;100410.63;;;-0.24;52.72
64835;BME280;51293;59.296;18.006;2023-02-10T03:51:07;100417.94;;;-0.26;52.58
64835;BME280;51293;59.296;18.006;2023-02-10T03:53:33;100417.09;;;-0.27;52.53
64835;BME280;51293;59.296;18.006;2023-02-10T03:55:59;100434.59;;;-0.24;52.71
64835;BME280;51293;59.296;18.006;2023-02-10T03:58:24;100433.25;;;-0.29;52.70
64835;BME280;51293;59.296;18.006;2023-02-10T04:00:50;100438.56;;;-0.29;51.61
64835;BME280;51293;59.296;18.006;2023-02-10T04:03:16;100439.75;;;-0.31;52.19
64835;BME280;51293;59.296;18.006;2023-02-10T04:05:41;100427.75;;;-0.27;51.86
64835;BME280;51293;59.296;18.006;2023-02-10T04:08:07;100440.56;;;-0.31;51.88
64835;BME280;51293;59.296;18.006;2023-02-10T04:10:33;100446.72;;;-0.30;52.25
64835;BME280;51293;59.296;18.006;2023-02-10T04:12:58;100447.03;;;-0.25;51.94
64835;BME280;51293;59.296;18.006;2023-02-10T04:15:24;100448.38;;;-0.29;51.88
64835;BME280;51293;59.296;18.006;2023-02-10T04:17:49;100462.84;;;-0.23;51.73
64835;BME280;51293;59.296;18.006;2023-02-10T04:20:15;100458.38;;;-0.23;52.41
64835;BME280;51293;59.296;18.006;2023-02-10T04:22:40;100466.00;;;-0.20;51.36
64835;BME280;51293;59.296;18.006;2023-02-10T04:25:06;100463.00;;;-0.25;52.00
64835;BME280;51293;59.296;18.006;2023-02-10T04:27:32;100477.81;;;-0.31;51.73
64835;BME280;51293;59.296;18.006;2023-02-10T04:29:57;100495.81;;;-0.24;51.35
64835;BME280;51293;59.296;18.006;2023-02-10T04:32:22;100496.63;;;-0.24;51.88
64835;BME280;51293;59.296;18.006;2023-02-10T04:34:48;100502.28;;;-0.27;51.48
64835;BME280;51293;59.296;18.006;2023-02-10T04:37:20;100501.78;;;-0.31;51.62
64835;BME280;51293;59.296;18.006;2023-02-10T04:39:45;100499.78;;;-0.29;51.80
64835;BME280;51293;59.296;18.006;2023-02-10T04:42:10;100516.09;;;-0.32;51.72
64835;BME280;51293;59.296;18.006;2023-02-10T04:44:36;100498.94;;;-0.29;51.63
64835;BME280;51293;59.296;18.006;2023-02-10T04:47:01;100500.59;;;-0.28;51.16
64835;BME280;51293;59.296;18.006;2023-02-10T04:49:27;100502.28;;;-0.27;51.99
64835;BME280;51293;59.296;18.006;2023-02-10T04:51:53;100531.88;;;-0.38;52.37
64835;BME280;51293;59.296;18.006;2023-02-10T04:54:19;100534.72;;;-0.40;52.49
64835;BME280;51293;59.296;18.006;2023-02-10T04:56:44;100522.22;;;-0.39;51.90
64835;BME280;51293;59.296;18.006;2023-02-10T04:59:10;100530.69;;;-0.44;52.44
64835;BME280;51293;59.296;18.006;2023-02-10T05:01:35;100540.84;;;-0.47;52.63
64835;BME280;51293;59.296;18.006;2023-02-10T05:04:01;100539.50;;;-0.43;52.08
64835;BME280;51293;59.296;18.006;2023-02-10T05:06:26;100542.88;;;-0.41;52.17
64835;BME280;51293;59.296;18.006;2023-02-10T05:08:52;100555.47;;;-0.43;52.33
64835;BME280;51293;59.296;18.006;2023-02-10T05:11:18;100550.66;;;-0.48;52.16
64835;BME280;51293;59.296;18.006;2023-02-10T05:13:44;100557.97;;;-0.42;52.21
64835;BME280;51293;59.296;18.006;2023-02-10T05:16:11;100542.50;;;-0.46;52.16
64835;BME280;51293;59.296;18.006;2023-02-10T05:18:37;100570.78;;;-0.45;52.40
64835;BME280;51293;59.296;18.006;2023-02-10T05:21:05;100572.63;;;-0.46;52.16
64835;BME280;51293;59.296;18.006;2023-02-10T05:23:32;100588.94;;;-0.41;52.19
64835;BME280;51293;59.296;18.006;2023-02-10T05:25:57;100589.25;;;-0.44;52.45
64835;BME280;51293;59.296;18.006;2023-02-10T05:28:22;100603.91;;;-0.40;52.74
64835;BME280;51293;59.296;18.006;2023-02-10T05:30:48;100596.56;;;-0.38;52.58
64835;BME280;51293;59.296;18.006;2023-02-10T05:33:13;100605.03;;;-0.42;52.81
64835;BME280;51293;59.296;18.006;2023-02-10T05:35:39;100589.91;;;-0.42;52.60
64835;BME280;51293;59.296;18.006;2023-02-10T05:38:04;100609.69;;;-0.44;53.09
64835;BME280;51293;59.296;18.006;2023-02-10T05:40:31;100616.84;;;-0.45;52.90
64835;BME280;51293;59.296;18.006;2023-02-10T05:42:56;100610.53;;;-0.44;53.31
64835;BME280;51293;59.296;18.006;2023-02-10T05:45:22;100610.69;;;-0.45;52.94
64835;BME280;51293;59.296;18.006;2023-02-10T05:47:47;100613.00;;;-0.50;53.45
64835;BME280;51293;59.296;18.006;2023-02-10T05:50:13;100625.47;;;-0.51;53.44
64835;BME280;51293;59.296;18.006;2023-02-10T05:52:39;100636.47;;;-0.46;53.24
64835;BME280;51293;59.296;18.006;2023-02-10T05:55:05;100644.47;;;-0.46;53.66
64835;BME280;51293;59.296;18.006;2023-02-10T05:57:30;100652.78;;;-0.49;53.84
64835;BME280;51293;59.296;18.006;2023-02-10T05:59:56;100663.50;;;-0.59;54.02
64835;BME280;51293;59.296;18.006;2023-02-10T06:02:21;100679.19;;;-0.55;54.12
64835;BME280;51293;59.296;18.006;2023-02-10T06:04:47;100686.78;;;-0.61;53.95
64835;BME280;51293;59.296;18.006;2023-02-10T06:07:12;100702.09;;;-0.63;54.23
64835;BME280;51293;59.296;18.006;2023-02-10T06:09:37;100714.41;;;-0.62;54.42
64835;BME280;51293;59.296;18.006;2023-02-10T06:12:05;100714.34;;;-0.70;54.76
64835;BME280;51293;59.296;18.006;2023-02-10T06:14:30;100700.06;;;-0.69;55.05
64835;BME280;51293;59.296;18.006;2023-02-10T06:16:56;100705.69;;;-0.72;55.03
64835;BME280;51293;59.296;18.006;2023-02-10T06:19:21;100713.53;;;-0.70;54.91
64835;BME280;51293;59.296;18.006;2023-02-10T06:21:47;100727.50;;;-0.68;54.44
64835;BME280;51293;59.296;18.006;2023-02-10T06:24:12;100729.97;;;-0.67;54.58
64835;BME280;51293;59.296;18.006;2023-02-10T06:26:38;100736.94;;;-0.74;55.03
64835;BME280;51293;59.296;18.006;2023-02-10T06:29:03;100747.59;;;-0.74;55.26
64835;BME280;51293;59.296;18.006;2023-02-10T06:31:29;100776.69;;;-0.72;54.88
64835;BME280;51293;59.296;18.006;2023-02-10T06:33:54;100773.19;;;-0.73;55.10
64835;BME280;51293;59.296;18.006;2023-02-10T06:36:20;100788.16;;;-0.72;54.90
64835;BME280;51293;59.296;18.006;2023-02-10T06:38:45;100791.81;;;-0.73;55.32
64835;BME280;51293;59.296;18.006;2023-02-10T06:41:13;100805.72;;;-0.79;55.43
64835;BME280;51293;59.296;18.006;2023-02-10T06:43:38;100801.41;;;-0.80;55.40
64835;BME280;51293;59.296;18.006;2023-02-10T06:46:04;100798.19;;;-0.83;55.55
64835;BME280;51293;59.296;18.006;2023-02-10T06:48:29;100815.38;;;-0.78;55.50
64835;BME280;51293;59.296;18.006;2023-02-10T06:50:55;100817.53;;;-0.81;55.66
64835;BME280;51293;59.296;18.006;2023-02-10T06:53:20;100826.78;;;-0.86;55.80
64835;BME280;51293;59.296;18.006;2023-02-10T06:55:46;100824.44;;;-0.89;56.22
64835;BME280;51293;59.296;18.006;2023-02-10T06:58:11;100830.50;;;-0.78;55.88
64835;BME280;51293;59.296;18.006;2023-02-10T07:00:37;100843.28;;;-0.82;56.21
64835;BME280;51293;59.296;18.006;2023-02-10T07:03:02;100839.16;;;-0.76;56.19
64835;BME280;51293;59.296;18.006;2023-02-10T07:05:28;100843.28;;;-0.82;56.14
64835;BME280;51293;59.296;18.006;2023-02-10T07:07:53;100843.28;;;-0.82;56.34
64835;BME280;51293;59.296;18.006;2023-02-10T07:10:20;100850.25;;;-0.81;56.37
64835;BME280;51293;59.296;18.006;2023-02-10T07:12:46;100855.94;;;-0.76;56.17
64835;BME280;51293;59.296;18.006;2023-02-10T07:15:15;100868.41;;;-0.76;56.24
64835;BME280;51293;59.296;18.006;2023-02-10T07:17:42;100878.88;;;-0.75;56.22
64835;BME280;51293;59.296;18.006;2023-02-10T07:20:07;100873.78;;;-0.68;56.53
64835;BME280;51293;59.296;18.006;2023-02-10T07:22:33;100896.91;;;-0.69;56.51
64835;BME280;51293;59.296;18.006;2023-02-10T07:24:58;100895.78;;;-0.66;56.33
64835;BME280;51293;59.296;18.006;2023-02-10T07:27:24;100886.09;;;-0.67;56.26
64835;BME280;51293;59.296;18.006;2023-02-10T07:29:49;100911.59;;;-0.65;56.61
64835;BME280;51293;59.296;18.006;2023-02-10T07:32:15;100923.06;;;-0.64;56.41
64835;BME280;51293;59.296;18.006;2023-02-10T07:34:40;100920.25;;;-0.63;56.55
64835;BME280;51293;59.296;18.006;2023-02-10T07:37:06;100942.75;;;-0.57;56.38
64835;BME280;51293;59.296;18.006;2023-02-10T07:39:32;100928.38;;;-0.64;56.47
64835;BME280;51293;59.296;18.006;2023-02-10T07:41:57;100948.59;;;-0.53;55.94
64835;BME280;51293;59.296;18.006;2023-02-10T07:44:23;100968.13;;;-0.45;55.88
64835;BME280;51293;59.296;18.006;2023-02-10T07:46:51;100963.53;;;-0.35;55.78
64835;BME280;51293;59.296;18.006;2023-02-10T07:49:16;100966.06;;;-0.33;56.07
64835;BME280;51293;59.296;18.006;2023-02-10T07:51:41;100978.38;;;-0.32;55.64
64835;BME280;51293;59.296;18.006;2023-02-10T07:54:08;100965.50;;;-0.19;55.75
64835;BME280;51293;59.296;18.006;2023-02-10T07:56:33;100972.34;;;-0.16;55.56
64835;BME280;51293;59.296;18.006;2023-02-10T07:58:59;100977.75;;;-0.08;55.50
64835;BME280;51293;59.296;18.006;2023-02-10T08:01:24;100987.22;;;-0.06;55.36
64835;BME280;51293;59.296;18.006;2023-02-10T08:03:50;100993.41;;;-0.05;55.16
64835;BME280;51293;59.296;18.006;2023-02-10T08:06:23;101007.13;;;0.08;55.23
64835;BME280;51293;59.296;18.006;2023-02-10T08:08:49;101004.63;;;0.07;55.06
64835;BME280;51293;59.296;18.006;2023-02-10T08:11:15;101010.22;;;0.21;55.11
64835;BME280;51293;59.296;18.006;2023-02-10T08:13:41;101015.09;;;0.26;54.98
64835;BME280;51293;59.296;18.006;2023-02-10T08:16:07;101023.75;;;0.28;54.93
64835;BME280;51293;59.296;18.006;2023-02-10T08:18:35;101028.03;;;0.21;55.07
64835;BME280;51293;59.296;18.006;2023-02-10T08:21:01;101034.41;;;0.28;55.20
64835;BME280;51293;59.296;18.006;2023-02-10T08:23:27;101032.97;;;0.34;54.89
64835;BME280;51293;59.296;18.006;2023-02-10T08:25:52;101058.13;;;0.39;54.47
64835;BME280;51293;59.296;18.006;2023-02-10T08:28:18;101042.13;;;0.39;54.83
64835;BME280;51293;59.296;18.006;2023-02-10T08:30:44;101065.81;;;0.42;54.84
64835;BME280;51293;59.296;18.006;2023-02-10T08:33:09;101069.72;;;0.56;53.87
64835;BME280;51293;59.296;18.006;2023-02-10T08:35:36;101075.78;;;0.66;53.81
64835;BME280;51293;59.296;18.006;2023-02-10T08:38:02;101074.66;;;0.69;53.60
64835;BME280;51293;59.296;18.006;2023-02-10T08:40:28;101095.94;;;0.61;53.55
64835;BME280;51293;59.296;18.006;2023-02-10T08:42:53;101088.31;;;0.74;53.96
64835;BME280;51293;59.296;18.006;2023-02-10T08:45:19;101083.19;;;0.80;53.41
64835;BME280;51293;59.296;18.006;2023-02-10T08:47:44;101091.53;;;0.77;53.26
64835;BME280;51293;59.296;18.006;2023-02-10T08:50:10;101092.75;;;0.83;53.13
64835;BME280;51293;59.296;18.006;2023-02-10T08:52:35;101104.59;;;0.89;52.58
64835;BME280;51293;59.296;18.006;2023-02-10T08:55:01;101114.63;;;0.95;52.84
64835;BME280;51293;59.296;18.006;2023-02-10T08:57:27;101123.91;;;1.17;52.01
64835;BME280;51293;59.296;18.006;2023-02-10T08:59:52;101127.09;;;1.20;51.20
64835;BME280;51293;59.296;18.006;2023-02-10T09:02:18;101138.66;;;1.37;50.66
64835;BME280;51293;59.296;18.006;2023-02-10T09:04:44;101137.09;;;1.60;50.32
64835;BME280;51293;59.296;18.006;2023-02-10T09:07:10;101142.22;;;1.54;50.19
64835;BME280;51293;59.296;18.006;2023-02-10T09:09:40;101142.31;;;1.78;49.60
64835;BME280;51293;59.296;18.006;2023-02-10T09:12:06;101140.16;;;1.90;49.03
64835;BME280;51293;59.296;18.006;2023-02-10T09:14:32;101146.19;;;2.00;48.64
64835;BME280;51293;59.296;18.006;2023-02-10T09:16:58;101156.06;;;2.00;48.72
64835;BME280;51293;59.296;18.006;2023-02-10T09:19:23;101160.66;;;1.81;48.61
64835;BME280;51293;59.296;18.006;2023-02-10T09:21:49;101161.53;;;1.90;49.00
64835;BME280;51293;59.296;18.006;2023-02-10T09:24:15;101164.38;;;1.96;48.03
64835;BME280;51293;59.296;18.006;2023-02-10T09:26:41;101179.28;;;1.99;48.54
64835;BME280;51293;59.296;18.006;2023-02-10T09:29:07;101180.97;;;2.16;48.28
64835;BME280;51293;59.296;18.006;2023-02-10T09:31:33;101172.63;;;2.28;47.74
64835;BME280;51293;59.296;18.006;2023-02-10T09:33:59;101181.63;;;2.27;48.05
64835;BME280;51293;59.296;18.006;2023-02-10T09:36:24;101185.63;;;2.14;48.35
64835;BME280;51293;59.296;18.006;2023-02-10T09:38:49;101189.28;;;2.13;48.53
64835;BME280;51293;59.296;18.006;2023-02-10T09:44:24;101213.28;;;1.89;49.35
64835;BME280;51293;59.296;18.006;2023-02-10T09:47:21;101218.75;;;1.79;49.54
64835;BME280;51293;59.296;18.006;2023-02-10T09:55:34;101206.81;;;1.49;49.70
64835;BME280;51293;59.296;18.006;2023-02-10T10:00:54;101214.44;;;1.44;49.90
64835;BME280;51293;59.296;18.006;2023-02-10T10:03:28;101226.19;;;1.59;49.75
64835;BME280;51293;59.296;18.006;2023-02-10T10:06:23;101221.03;;;1.58;49.99
64835;BME280;51293;59.296;18.006;2023-02-10T10:09:00;101225.91;;;1.71;49.87
64835;BME280;51293;59.296;18.006;2023-02-10T10:11:33;101230.63;;;1.77;49.94
64835;BME280;51293;59.296;18.006;2023-02-10T10:14:01;101234.16;;;1.85;49.54
64835;BME280;51293;59.296;18.006;2023-02-10T10:16:49;101248.75;;;1.65;49.21
64835;BME280;51293;59.296;18.006;2023-02-10T10:25:06;101247.88;;;1.90;48.69
64835;BME280;51293;59.296;18.006;2023-02-10T10:28:18;101239.53;;;2.02;48.38
64835;BME280;51293;59.296;18.006;2023-02-10T10:30:48;101254.94;;;2.08;47.94
64835;BME280;51293;59.296;18.006;2023-02-10T10:36:18;101240.53;;;1.92;48.14
64835;BME280;51293;59.296;18.006;2023-02-10T10:38:54;101248.59;;;2.09;47.92
64835;BME280;51293;59.296;18.006;2023-02-10T10:41:26;101242.44;;;2.16;48.12
64835;BME280;51293;59.296;18.006;2023-02-10T10:43:56;101239.28;;;2.29;48.05
64835;BME280;51293;59.296;18.006;2023-02-10T10:48:56;101230.97;;;2.40;47.60
64835;BME280;51293;59.296;18.006;2023-02-10T10:51:22;101230.78;;;2.50;47.17
64835;BME280;51293;59.296;18.006;2023-02-10T10:53:55;101246.84;;;2.66;46.82
64835;BME280;51293;59.296;18.006;2023-02-10T10:59:20;101256.81;;;2.15;47.01
64835;BME280;51293;59.296;18.006;2023-02-10T11:01:50;101246.84;;;2.50;47.20
64835;BME280;51293;59.296;18.006;2023-02-10T11:04:20;101248.69;;;2.49;47.18
64835;BME280;51293;59.296;18.006;2023-02-10T11:06:50;101252.53;;;2.71;46.85
64835;BME280;51293;59.296;18.006;2023-02-10T11:09:28;101253.03;;;2.50;46.79
64835;BME280;51293;59.296;18.006;2023-02-10T11:12:02;101253.81;;;2.27;46.95
64835;BME280;51293;59.296;18.006;2023-02-10T11:14:29;101256.81;;;2.23;46.93
64835;BME280;51293;59.296;18.006;2023-02-10T11:16:59;101264.84;;;2.23;47.11
64835;BME280;51293;59.296;18.006;2023-02-10T11:19:31;101255.13;;;2.22;47.08
64835;BME280;51293;59.296;18.006;2023-02-10T11:21:59;101251.00;;;2.36;47.66
64835;BME280;51293;59.296;18.006;2023-02-10T11:24:31;101261.09;;;2.00;46.73
64835;BME280;51293;59.296;18.006;2023-02-10T11:27:03;101254.41;;;2.04;47.07
64835;BME280;51293;59.296;18.006;2023-02-10T11:29:31;101247.41;;;2.11;47.45
64835;BME280;51293;59.296;18.006;2023-02-10T11:31:57;101248.56;;;2.01;47.32
64835;BME280;51293;59.296;18.006;2023-02-10T11:36:53;101252.75;;;2.11;46.97
64835;BME280;51293;59.296;18.006;2023-02-10T11:39:27;101244.75;;;2.11;47.16
64835;BME280;51293;59.296;18.006;2023-02-10T11:41:53;101254.28;;;2.22;46.21
64835;BME280;51293;59.296;18.006;2023-02-10T11:47:04;101249.59;;;2.08;45.72
64835;BME280;51293;59.296;18.006;2023-02-10T11:49:34;101253.09;;;2.08;46.09
64835;BME280;51293;59.296;18.006;2023-02-10T11:52:03;101264.13;;;2.13;45.50
64835;BME280;51293;59.296;18.006;2023-02-10T11:54:30;101255.03;;;1.98;45.63
64835;BME280;51293;59.296;18.006;2023-02-10T11:57:16;101261.13;;;2.08;45.13
64835;BME280;51293;59.296;18.006;2023-02-10T12:00:15;101258.78;;;2.13;45.02
64835;BME280;51293;59.296;18.006;2023-02-10T12:10:49;101268.78;;;2.03;43.94
64835;BME280;51293;59.296;18.006;2023-02-10T12:16:01;101277.22;;;2.24;43.54
64835;BME280;51293;59.296;18.006;2023-02-10T12:22:00;101273.59;;;2.50;42.82
64835;BME280;51293;59.296;18.006;2023-02-10T12:26:37;101285.56;;;2.30;42.84
64835;BME280;51293;59.296;18.006;2023-02-10T12:34:54;101286.22;;;2.32;42.78
64835;BME280;51293;59.296;18.006;2023-02-10T12:38:06;101296.34;;;2.12;43.14
64835;BME280;51293;59.296;18.006;2023-02-10T12:46:53;101289.31;;;2.03;43.60
64835;BME280;51293;59.296;18.006;2023-02-10T12:49:42;101298.25;;;1.85;43.11
64835;BME280;51293;59.296;18.006;2023-02-10T12:52:23;101288.84;;;1.73;42.38
64835;BME280;51293;59.296;18.006;2023-02-10T12:54:59;101318.72;;;1.68;42.36
64835;BME280;51293;59.296;18.006;2023-02-10T12:57:55;101312.09;;;1.55;42.83
64835;BME280;51293;59.296;18.006;2023-02-10T13:00:33;101311.66;;;1.59;43.09
64835;BME280;51293;59.296;18.006;2023-02-10T13:03:10;101306.66;;;1.64;43.65
64835;BME280;51293;59.296;18.006;2023-02-10T13:08:48;101310.81;;;1.59;43.20
64835;BME280;51293;59.296;18.006;2023-02-10T13:11:21;101305.81;;;1.64;43.53
64835;BME280;51293;59.296;18.006;2023-02-10T13:13:51;101298.34;;;1.67;43.51
64835;BME280;51293;59.296;18.006;2023-02-10T13:16:23;101300.53;;;1.72;44.42
64835;BME280;51293;59.296;18.006;2023-02-10T13:21:57;101306.28;;;1.85;45.60
64835;BME280;51293;59.296;18.006;2023-02-10T13:27:16;101286.75;;;1.85;46.04
64835;BME280;51293;59.296;18.006;2023-02-10T13:32:34;101288.50;;;1.68;45.95
64835;BME280;51293;59.296;18.006;2023-02-10T13:35:06;101287.16;;;1.72;45.98
64835;BME280;51293;59.296;18.006;2023-02-10T13:37:42;101279.84;;;1.74;46.21
64835;BME280;51293;59.296;18.006;2023-02-10T13:40:24;101285.38;;;1.81;45.90
64835;BME280;51293;59.296;18.006;2023-02-10T13:42:56;101286.41;;;1.88;45.72
64835;BME280;51293;59.296;18.006;2023-02-10T13:45:28;101296.97;;;1.97;45.48
64835;BME280;51293;59.296;18.006;2023-02-10T13:47:56;101306.06;;;1.79;44.97
64835;BME280;51293;59.296;18.006;2023-02-10T13:50:29;101304.72;;;1.75;45.07
64835;BME280;51293;59.296;18.006;2023-02-10T13:53:04;101313.19;;;1.70;45.11
64835;BME280;51293;59.296;18.006;2023-02-10T13:58:17;101301.19;;;1.66;44.91
64835;BME280;51293;59.296;18.006;2023-02-10T14:00:50;101304.97;;;1.63;45.01
64835;BME280;51293;59.296;18.006;2023-02-10T14:05:54;101319.22;;;1.46;44.73
64835;BME280;51293;59.296;18.006;2023-02-10T14:08:38;101320.84;;;1.39;45.05
64835;BME280;51293;59.296;18.006;2023-02-10T14:11:27;101307.09;;;1.26;45.70
64835;BME280;51293;59.296;18.006;2023-02-10T14:14:47;101315.25;;;1.24;45.35
64835;BME280;51293;59.296;18.006;2023-02-10T14:16:49;101313.72;;;1.22;45.19
64835;BME280;51293;59.296;18.006;2023-02-10T14:19:28;101315.25;;;1.24;45.54
64835;BME280;51293;59.296;18.006;2023-02-10T14:21:54;101308.88;;;1.17;45.42
64835;BME280;51293;59.296;18.006;2023-02-10T14:24:32;101299.81;;;1.10;45.80
64835;BME280;51293;59.296;18.006;2023-02-10T14:27:02;101293.56;;;1.01;45.37
64835;BME280;51293;59.296;18.006;2023-02-10T14:29:31;101302.94;;;0.88;45.49
64835;BME280;51293;59.296;18.006;2023-02-10T14:31:59;101288.09;;;0.85;45.98
64835;BME280;51293;59.296;18.006;2023-02-10T14:34:27;101300.19;;;0.79;46.20